Terminal Aerodrome Forecast
Issued by NWS Wilmington, NC

Current Version | Previous Version | Text Only | Print | Product List | Glossary On
Versions: 1 2 3 4 5 6 7 8 9 10 11 12 13 14 15 16 17 18 19 20
000
FTUS42 KILM 251135 CCA
TAFMYR
TAF COR
KMYR 251135Z 2512/2612 04010KT P6SM OVC008
     FM251300 04012KT P6SM BKN010
     FM251600 04012KT P6SM BKN020
     FM252000 02012KT P6SM SCT025 BKN050
     FM260000 36009KT P6SM SCT050
     FM260900 34009KT P6SM OVC004=

USA.gov is the U.S. government's official web portal to all federal, state and local government web resources and services.